• Join FlightAware (Why Join?)
  • Login
  • US Flag 
10:35PM EDT


 

Airport Tracker/Info


-or-


 

Live Flight TrackerFlight Track Log ✈ SKW7367 ✈ 22-Apr-2014 ✈ KDTW - KAPN

Flight Track Log - Related Links

Times and Time Zones

All times are in EDT time to prevent confusion due to time zone crossing. See the SKW7367 flight status page for this flight to view local times or setup timezone preferences in your user account.

Time Position Orientation Groundspeed Altitude Reporting Facility
EDT Latitude Longitude Course Direction KTS MPH feet Rate Location/Type
04:04PM 42.2214 -83.3581 North 156 180 1,500  Level Cleveland Center
04:05PM 42.2847 -83.3275 20° North 216 249 5,600 2,700 Climbing Cleveland Center
04:06PM 42.3214 -83.3133 16° North 219 252 7,200 2,520 Climbing Cleveland Center
04:07PM 42.3925 -83.2783 20° North 263 303 10,200 2,760 Climbing Cleveland Center
04:08PM 42.4756 -83.2894 354° North 273 314 13,000 1,620 Climbing Cleveland Center
04:09PM 42.6259 -83.3500 North  Level FlightAware Approximate
04:09PM 42.5619 -83.3047 353° North 311 358 13,600  Level Cleveland Center
04:10PM 42.6586 -83.3225 352° North 347 399 15,000 660 Climbing Cleveland Center
04:11PM 42.7853 -83.3442 353° North 382 440 15,000  Level Cleveland Center
04:12PM 42.8908 -83.3636 352° North 383 441 15,000  Level Cleveland Center
04:13PM 42.9983 -83.3661 359° North 384 442 15,000  Level Cleveland Center
04:14PM 43.0969 -83.3978 347° North 365 420 15,000  Level Cleveland Center
04:15PM 43.1631 -83.5000 312° West 361 415 15,000  Level Cleveland Center
04:16PM 43.2281 -83.6022 311° West 360 414 15,000  Level Cleveland Center
04:17PM 43.3075 -83.7256 312° West 359 413 15,000  Level Cleveland Center
04:18PM 43.3736 -83.8283 312° West 360 414 15,000  Level Cleveland Center
04:19PM 43.4400 -83.9325 311° West 361 415 15,000  Level Cleveland Center
04:20PM 43.5119 -84.0428 312° West 365 420 15,000  Level Cleveland Center
04:21PM 43.6203 -84.0489 358° North 401 461 15,000  Level Cleveland Center
04:22PM 43.7433 -84.0075 14° North 402 463 15,000  Level Cleveland Center
04:23PM 43.8328 -83.9642 19° North 400 460 15,000  Level Cleveland Center
04:24PM 43.9403 -83.9042 22° Northeast 400 460 15,000 -960 Level Minneapolis Center
04:25PM 44.0464 -83.8411 23° Northeast 389 448 13,200 -1,800 Descending Minneapolis Center
04:26PM 44.1300 -83.7928 23° Northeast 335 386 11,300 -1,500 Descending Minneapolis Center
04:27PM 44.2147 -83.7439 22° Northeast 310 357 10,100 -1,380 Descending Minneapolis Center
04:28PM 44.2844 -83.7044 22° Northeast 277 319 8,500 -1,800 Descending Minneapolis Center
04:29PM 44.3575 -83.6644 21° North 269 310 6,400 -1,800 Descending Minneapolis Center
04:31PM 44.4269 -83.6264 21° North 255 293 4,900 -1,140 Descending Minneapolis Center
04:32PM 44.4892 -83.5906 22° Northeast 248 285 4,100 -780 Descending Minneapolis Center
04:33PM 44.5567 -83.5622 17° North 239 275 3,300 -420 Descending Minneapolis Center
04:34PM 44.6192 -83.5603 North 231 266 3,300  Level Minneapolis Center
04:35PM 44.6831 -83.5558 North 219 252 3,300  Level Minneapolis Center
04:36PM 44.7389 -83.5608 356° North 207 238 3,300  Level Minneapolis Center
04:37PM 44.7928 -83.5597 North 186 214 3,300 -180 Level Minneapolis Center
04:38PM 44.8411 -83.5597 360° North 180 207 3,000 -300 Descending Minneapolis Center
04:39PM 44.8872 -83.5606 359° North 161 185 2,800 -120 Descending Minneapolis Center
04:40PM 44.9297 -83.5603 360° North 159 183 2,800 -120 Level Minneapolis Center
04:41PM 44.9742 -83.5606 360° North 154 177 2,600 -480 Descending Minneapolis Center
04:42PM 45.0081 -83.5611 359° North 131 151 1,900 -720 Descending Minneapolis Center
04:43PM 45.0458 -83.5608 360° North 130 150 1,200 -600 Descending Minneapolis Center
04:44PM 45.0800 -83.5614 359° North 130 150 700 -540 Descending Minneapolis Center